createdAt,value
2018-08-10T00:00:40.159Z,80.90
2018-08-10T00:03:10.297Z,80.60
2018-08-10T00:05:40.239Z,80.80
2018-08-10T00:08:09.090Z,80.70
2018-08-10T00:10:37.793Z,81.00
2018-08-10T00:13:06.614Z,81.20
2018-08-10T00:15:35.518Z,81.50
2018-08-10T00:18:04.413Z,81.40
2018-08-10T00:20:33.249Z,81.10
2018-08-10T00:23:01.940Z,81.30
2018-08-10T00:25:30.756Z,81.40
2018-08-10T00:27:59.506Z,81.70
2018-08-10T00:30:28.275Z,81.80
2018-08-10T00:32:57.111Z,82.10
2018-08-10T00:35:25.763Z,82.40
2018-08-10T00:37:54.808Z,82.50
2018-08-10T00:40:23.989Z,82.30
2018-08-10T00:42:52.878Z,82.10
2018-08-10T00:45:21.696Z,82.50
2018-08-10T00:47:50.453Z,82.90
2018-08-10T00:50:19.151Z,83.00
2018-08-10T00:52:48.421Z,83.50
2018-08-10T00:55:18.368Z,83.90
2018-08-10T00:57:47.744Z,83.90
2018-08-10T01:00:22.986Z,83.30
2018-08-10T01:02:52.491Z,83.40
2018-08-10T01:05:21.214Z,83.90
2018-08-10T01:07:50.053Z,83.60
2018-08-10T01:10:19.769Z,83.70
2018-08-10T01:12:48.786Z,83.90
2018-08-10T01:15:17.936Z,84.00
2018-08-10T01:17:47.126Z,84.00
2018-08-10T01:20:20.503Z,84.00
2018-08-10T01:22:54.923Z,84.40
2018-08-10T01:25:25.364Z,84.70
2018-08-10T01:27:59.666Z,84.90
2018-08-10T01:30:29.571Z,85.00
2018-08-10T01:32:58.885Z,85.00
2018-08-10T01:35:28.338Z,84.80
2018-08-10T01:37:58.241Z,85.00
2018-08-10T01:40:27.078Z,85.10
2018-08-10T01:42:55.738Z,85.10
2018-08-10T01:45:24.465Z,85.10
2018-08-10T01:47:53.343Z,85.20
2018-08-10T01:50:22.387Z,85.80
2018-08-10T01:52:51.026Z,86.90
2018-08-10T01:55:19.871Z,87.20
2018-08-10T01:57:48.540Z,87.50
2018-08-10T02:00:17.196Z,87.20
2018-08-10T02:02:45.878Z,87.60
2018-08-10T02:05:15.295Z,88.30
2018-08-10T02:07:44.594Z,87.70
2018-08-10T02:10:14.941Z,88.20
2018-08-10T02:12:44.443Z,88.70
2018-08-10T02:15:15.735Z,89.60
2018-08-10T02:17:44.506Z,90.00
2018-08-10T02:20:14.791Z,90.00
2018-08-10T02:22:43.756Z,89.90
2018-08-10T02:25:13.993Z,89.40
2018-08-10T02:27:43.738Z,89.10
2018-08-10T02:30:13.795Z,88.60
2018-08-10T02:32:43.166Z,88.10
2018-08-10T02:35:12.016Z,87.80
2018-08-10T02:37:41.290Z,87.60
2018-08-10T02:40:17.213Z,87.50
2018-08-10T02:42:47.009Z,87.30
2018-08-10T02:45:16.191Z,87.30
2018-08-10T02:47:45.551Z,87.10
2018-08-10T02:50:14.476Z,86.80
2018-08-10T02:52:43.318Z,86.80
2018-08-10T02:55:12.688Z,87.00
2018-08-10T02:57:41.665Z,87.10
2018-08-10T03:00:12.858Z,87.50
2018-08-10T03:02:42.121Z,87.70
2018-08-10T03:05:11.023Z,87.50
2018-08-10T03:07:40.243Z,87.50
2018-08-10T03:10:10.855Z,87.50
2018-08-10T03:12:39.607Z,88.10
2018-08-10T03:15:12.926Z,88.30
2018-08-10T03:17:41.950Z,88.70
2018-08-10T03:20:11.090Z,89.30
2018-08-10T03:22:40.149Z,89.40
2018-08-10T03:25:10.653Z,89.70
2018-08-10T03:27:39.445Z,90.00
2018-08-10T03:30:10.078Z,90.20
2018-08-10T03:32:39.035Z,89.80
2018-08-10T03:35:07.847Z,89.00
2018-08-10T03:37:37.103Z,89.20
2018-08-10T03:40:08.743Z,89.10
2018-08-10T03:42:37.395Z,88.50
2018-08-10T03:45:06.558Z,88.20
2018-08-10T03:47:35.678Z,88.30
2018-08-10T03:50:05.646Z,88.40
2018-08-10T03:52:34.358Z,88.90
2018-08-10T03:55:03.143Z,89.10
2018-08-10T03:57:31.755Z,89.30
2018-08-10T04:00:00.521Z,88.40
2018-08-10T04:02:29.225Z,88.20
2018-08-10T04:04:57.988Z,87.90
2018-08-10T04:07:26.758Z,87.90
2018-08-10T04:09:55.497Z,88.30
2018-08-10T04:12:24.160Z,87.80
2018-08-10T04:14:52.863Z,88.00
2018-08-10T04:17:25.524Z,88.90
2018-08-10T04:19:55.018Z,89.40
2018-08-10T04:22:24.960Z,89.00
2018-08-10T04:24:53.664Z,89.10
2018-08-10T04:27:22.482Z,89.10
2018-08-10T04:29:51.191Z,89.40
2018-08-10T04:32:20.131Z,89.90
2018-08-10T04:34:48.815Z,90.10
2018-08-10T04:37:17.947Z,89.40
2018-08-10T04:39:46.691Z,89.10
2018-08-10T04:42:15.365Z,89.00
2018-08-10T04:44:43.983Z,89.00
2018-08-10T04:47:12.715Z,88.80
2018-08-10T04:49:41.395Z,88.30
2018-08-10T04:52:10.016Z,87.90
2018-08-10T04:54:38.700Z,88.00
2018-08-10T04:57:07.482Z,87.40
2018-08-10T04:59:36.118Z,86.80
2018-08-10T05:02:05.904Z,86.40
2018-08-10T05:04:34.561Z,86.70
2018-08-10T05:07:03.413Z,84.50
2018-08-10T05:09:32.073Z,83.90
2018-08-10T05:12:00.658Z,83.20
2018-08-10T05:14:29.243Z,81.20
2018-08-10T05:16:57.938Z,81.20
2018-08-10T05:19:26.747Z,81.50
2018-08-10T05:21:55.418Z,80.60
2018-08-10T05:24:24.163Z,81.20
2018-08-10T05:26:52.923Z,80.50
2018-08-10T05:29:21.738Z,79.90
2018-08-10T05:31:50.397Z,79.40
2018-08-10T05:34:19.069Z,79.30
2018-08-10T05:36:47.812Z,78.40
2018-08-10T05:39:16.575Z,77.30
2018-08-10T05:41:45.198Z,76.50
2018-08-10T05:44:13.850Z,75.60
2018-08-10T05:46:42.497Z,73.60
2018-08-10T05:49:11.181Z,72.80
2018-08-10T05:51:39.799Z,72.00
2018-08-10T05:54:08.486Z,71.80
2018-08-10T05:56:38.308Z,71.20
2018-08-10T05:59:07.059Z,71.20
2018-08-10T06:01:35.765Z,71.20
2018-08-10T06:04:04.986Z,71.20
2018-08-10T06:06:33.494Z,72.10
2018-08-10T06:09:02.215Z,73.90
2018-08-10T06:11:30.929Z,73.10
2018-08-10T06:13:59.656Z,73.70
2018-08-10T06:16:28.398Z,73.80
2018-08-10T06:18:57.039Z,73.10
2018-08-10T06:21:25.635Z,72.90
2018-08-10T06:23:54.281Z,72.10
2018-08-10T06:26:23.140Z,71.20
2018-08-10T06:28:51.946Z,70.30
2018-08-10T06:31:20.791Z,68.20
2018-08-10T06:33:49.520Z,65.20
2018-08-10T06:36:18.253Z,66.30
2018-08-10T06:38:46.986Z,66.60
2018-08-10T06:41:15.645Z,65.30
2018-08-10T06:43:44.338Z,64.60
2018-08-10T06:46:12.991Z,64.20
2018-08-10T06:48:42.076Z,63.30
2018-08-10T06:51:10.751Z,63.60
2018-08-10T06:53:39.531Z,62.80
2018-08-10T06:56:09.032Z,62.60
2018-08-10T06:58:37.713Z,61.80
2018-08-10T07:01:06.544Z,60.90
2018-08-10T07:03:35.193Z,61.30
2018-08-10T07:06:03.876Z,61.00
2018-08-10T07:08:33.657Z,60.60
2018-08-10T07:11:02.493Z,59.70
2018-08-10T07:13:31.298Z,59.30
2018-08-10T07:16:00.001Z,58.50
2018-08-10T07:18:28.691Z,58.50
2018-08-10T07:20:57.323Z,57.60
2018-08-10T07:23:26.004Z,57.20
2018-08-10T07:25:54.708Z,56.50
2018-08-10T07:28:23.468Z,56.20
2018-08-10T07:30:52.337Z,55.50
2018-08-10T07:33:21.379Z,56.30
2018-08-10T07:35:50.225Z,53.80
2018-08-10T07:38:19.091Z,54.40
2018-08-10T07:40:47.932Z,53.30
2018-08-10T07:43:16.851Z,52.20
2018-08-10T07:45:45.601Z,52.70
2018-08-10T07:48:14.255Z,52.30
2018-08-10T07:50:43.156Z,52.80
2018-08-10T07:53:12.171Z,52.80
2018-08-10T07:55:40.964Z,51.20
2018-08-10T07:58:09.959Z,52.20
2018-08-10T08:00:38.790Z,51.10
2018-08-10T08:03:07.749Z,49.50
2018-08-10T08:05:36.525Z,47.90
2018-08-10T08:08:05.557Z,48.00
2018-08-10T08:10:34.451Z,47.00
2018-08-10T08:13:03.150Z,45.30
2018-08-10T08:15:31.986Z,43.30
2018-08-10T08:18:00.848Z,42.00
2018-08-10T08:20:29.544Z,40.30
2018-08-10T08:23:03.828Z,40.70
2018-08-10T08:25:34.019Z,41.30
2018-08-10T08:28:02.826Z,39.90
2018-08-10T08:30:31.556Z,42.20
2018-08-10T08:33:00.320Z,42.50
2018-08-10T08:35:29.016Z,43.00
2018-08-10T08:38:13.321Z,42.50
2018-08-10T08:40:42.229Z,43.40
2018-08-10T08:43:11.127Z,41.40
2018-08-10T08:46:00.943Z,40.00
2018-08-10T08:48:30.985Z,39.30
2018-08-10T08:51:02.536Z,39.50
2018-08-10T08:53:31.506Z,37.60
2018-08-10T08:56:02.873Z,37.60
2018-08-10T08:58:32.233Z,38.10
2018-08-10T09:01:01.302Z,36.60
2018-08-10T09:03:46.909Z,36.80
2018-08-10T09:06:17.820Z,37.30
2018-08-10T09:09:34.341Z,37.00
2018-08-10T09:12:03.107Z,35.90
2018-08-10T09:14:43.913Z,35.10
2018-08-10T09:17:13.198Z,35.10
2018-08-10T09:19:42.391Z,33.50
2018-08-10T09:22:11.719Z,33.80
2018-08-10T09:24:41.199Z,33.50
2018-08-10T09:27:10.345Z,32.80
2018-08-10T09:29:39.207Z,31.60
2018-08-10T09:32:08.057Z,31.10
2018-08-10T09:34:36.821Z,32.20
2018-08-10T09:37:06.484Z,33.50
2018-08-10T09:39:35.434Z,32.60
2018-08-10T09:42:06.438Z,33.20
2018-08-10T09:44:35.600Z,32.60
2018-08-10T09:47:05.201Z,32.20
2018-08-10T09:49:52.044Z,31.10
2018-08-10T09:52:21.102Z,30.80
2018-08-10T09:55:40.393Z,30.90
2018-08-10T09:58:18.196Z,30.30
2018-08-10T10:00:53.366Z,30.90
2018-08-10T10:03:24.456Z,30.50
2018-08-10T10:05:55.990Z,32.10
2018-08-10T10:08:25.312Z,32.20
2018-08-10T10:10:54.286Z,31.30
2018-08-10T10:13:23.038Z,32.20
2018-08-10T10:15:51.780Z,33.30
2018-08-10T10:18:20.476Z,33.00
2018-08-10T10:20:49.283Z,31.90
2018-08-10T10:23:17.974Z,31.50
2018-08-10T10:25:46.736Z,30.70
2018-08-10T10:28:16.021Z,28.60
2018-08-10T10:30:44.779Z,28.50
2018-08-10T10:33:13.555Z,27.10
2018-08-10T10:35:42.745Z,28.90
2018-08-10T10:38:12.293Z,28.30
2018-08-10T10:40:41.031Z,29.50
2018-08-10T10:43:09.709Z,27.70
2018-08-10T10:45:38.378Z,28.20
2018-08-10T10:48:07.443Z,29.30
2018-08-10T10:50:36.143Z,30.00
2018-08-10T10:53:04.931Z,29.30
2018-08-10T10:55:33.675Z,29.10
2018-08-10T10:58:02.885Z,29.60
2018-08-10T11:00:31.669Z,29.40
2018-08-10T11:03:00.372Z,29.30
2018-08-10T11:05:29.796Z,28.20
2018-08-10T11:07:58.461Z,27.80
2018-08-10T11:10:27.213Z,27.70
2018-08-10T11:12:55.918Z,27.90
2018-08-10T11:15:24.710Z,26.90
2018-08-10T11:17:53.457Z,26.80
2018-08-10T11:20:22.290Z,27.30
2018-08-10T11:22:52.383Z,26.70
2018-08-10T11:25:22.537Z,25.90
2018-08-10T11:27:51.512Z,25.90
2018-08-10T11:30:20.334Z,26.10
2018-08-10T11:32:49.503Z,25.90
2018-08-10T11:35:18.231Z,25.50
2018-08-10T11:37:46.980Z,24.50
2018-08-10T11:40:15.796Z,24.40
2018-08-10T11:42:44.633Z,23.40
2018-08-10T11:45:16.143Z,23.80
2018-08-10T11:47:45.099Z,24.00
2018-08-10T11:50:13.994Z,24.10
2018-08-10T11:52:42.746Z,23.50
2018-08-10T11:55:14.275Z,23.70
2018-08-10T11:57:44.230Z,24.50
2018-08-10T12:00:14.408Z,24.70
2018-08-10T12:02:43.520Z,24.70
2018-08-10T12:05:13.073Z,24.80
2018-08-10T12:07:41.968Z,24.50
2018-08-10T12:10:10.845Z,24.20
2018-08-10T12:12:39.695Z,24.20
2018-08-10T12:15:11.099Z,24.70
2018-08-10T12:17:40.073Z,24.30
2018-08-10T12:20:09.463Z,24.10
2018-08-10T12:22:40.218Z,26.00
2018-08-10T12:25:09.757Z,26.20
2018-08-10T12:27:39.111Z,26.80
2018-08-10T12:30:10.436Z,27.20
2018-08-10T12:32:41.175Z,28.30
2018-08-10T12:35:10.471Z,29.00
2018-08-10T12:37:39.700Z,29.50
2018-08-10T12:40:08.963Z,30.40
2018-08-10T12:42:39.525Z,31.00
2018-08-10T12:45:08.845Z,32.10
2018-08-10T12:47:37.973Z,33.20
2018-08-10T12:50:07.200Z,33.50
2018-08-10T12:52:36.045Z,35.10
2018-08-10T12:55:06.596Z,36.40
2018-08-10T12:57:35.423Z,39.20
2018-08-10T13:00:06.967Z,39.60
2018-08-10T13:02:35.774Z,40.90
2018-08-10T13:05:05.478Z,42.40
2018-08-10T13:07:34.430Z,38.20
2018-08-10T13:10:03.668Z,39.90
2018-08-10T13:12:32.431Z,38.80
2018-08-10T13:15:01.128Z,38.90
2018-08-10T13:17:29.979Z,39.20
2018-08-10T13:19:58.761Z,39.30
2018-08-10T13:22:28.212Z,39.60
2018-08-10T13:24:57.050Z,39.50
2018-08-10T13:27:25.769Z,37.60
2018-08-10T13:29:54.650Z,37.60
2018-08-10T13:32:24.191Z,38.00
2018-08-10T13:34:52.912Z,38.20
2018-08-10T13:37:21.620Z,37.40
2018-08-10T13:39:50.606Z,36.20
2018-08-10T13:42:19.383Z,34.90
2018-08-10T13:44:48.154Z,33.20
2018-08-10T13:47:16.918Z,32.00
2018-08-10T13:49:45.914Z,27.80
2018-08-10T13:52:14.728Z,28.40
2018-08-10T13:54:44.364Z,28.00
2018-08-10T13:57:13.176Z,28.30
2018-08-10T13:59:42.162Z,28.50
2018-08-10T14:02:11.155Z,28.50
2018-08-10T14:04:39.853Z,28.20
2018-08-10T14:07:08.642Z,28.20
2018-08-10T14:09:37.384Z,29.20
2018-08-10T14:12:06.125Z,29.90
2018-08-10T14:14:35.883Z,29.90
2018-08-10T14:17:04.719Z,29.30
2018-08-10T14:19:33.381Z,29.50
2018-08-10T14:22:02.099Z,29.90
2018-08-10T14:24:31.016Z,31.00
2018-08-10T14:26:59.811Z,31.40
2018-08-10T14:29:29.448Z,32.30
2018-08-10T14:31:58.209Z,32.90
2018-08-10T14:34:26.986Z,34.00
2018-08-10T14:36:55.713Z,34.10
2018-08-10T14:39:24.591Z,32.60
2018-08-10T14:41:53.434Z,31.60
2018-08-10T14:44:22.213Z,30.40
2018-08-10T14:46:51.030Z,30.70
2018-08-10T14:49:21.421Z,30.20
2018-08-10T14:51:50.236Z,29.30
2018-08-10T14:54:18.945Z,29.30
2018-08-10T14:56:47.839Z,29.90
2018-08-10T14:59:16.671Z,30.00
2018-08-10T15:01:45.519Z,30.60
2018-08-10T15:04:14.377Z,30.00
2018-08-10T15:06:43.246Z,30.70
2018-08-10T15:09:13.306Z,31.40
2018-08-10T15:11:42.983Z,31.30
2018-08-10T15:14:11.818Z,32.10
2018-08-10T15:16:41.241Z,32.70
2018-08-10T15:19:10.415Z,33.60
2018-08-10T15:21:39.181Z,32.90
2018-08-10T15:24:07.913Z,32.60
2018-08-10T15:26:36.749Z,32.50
2018-08-10T15:29:05.932Z,32.80
2018-08-10T15:31:34.764Z,31.60
2018-08-10T15:34:03.623Z,30.60
2018-08-10T15:36:32.393Z,31.00
2018-08-10T15:39:01.151Z,30.50
2018-08-10T15:41:30.026Z,29.20
2018-08-10T15:43:58.905Z,28.50
2018-08-10T15:46:27.651Z,28.70
2018-08-10T15:48:56.465Z,29.20
2018-08-10T15:51:25.145Z,29.70
2018-08-10T15:53:53.818Z,30.30
2018-08-10T15:56:22.593Z,30.80
2018-08-10T15:58:51.227Z,31.50
2018-08-10T16:01:19.957Z,31.40
2018-08-10T16:03:48.714Z,31.20
2018-08-10T16:06:17.560Z,31.50
2018-08-10T16:08:46.333Z,31.40
2018-08-10T16:11:15.133Z,32.00
2018-08-10T16:13:44.077Z,32.00
2018-08-10T16:16:12.924Z,31.20
2018-08-10T16:18:42.841Z,31.40
2018-08-10T16:21:11.641Z,31.00
2018-08-10T16:23:40.826Z,31.40
2018-08-10T16:26:09.586Z,31.80
2018-08-10T16:28:38.364Z,31.60
2018-08-10T16:31:07.714Z,31.50
2018-08-10T16:33:36.474Z,31.80
2018-08-10T16:36:05.290Z,31.60
2018-08-10T16:38:34.209Z,32.00
2018-08-10T16:41:03.090Z,30.90
2018-08-10T16:43:31.854Z,31.60
2018-08-10T16:46:00.674Z,31.70
2018-08-10T16:48:29.641Z,31.50
2018-08-10T16:50:58.544Z,32.90
2018-08-10T16:53:28.341Z,32.80
2018-08-10T16:55:57.127Z,33.50
2018-08-10T16:58:26.235Z,34.20
2018-08-10T17:00:55.057Z,33.80
2018-08-10T17:03:23.850Z,34.20
2018-08-10T17:05:52.660Z,34.90
2018-08-10T17:08:21.414Z,34.80
2018-08-10T17:10:50.879Z,35.10
2018-08-10T17:13:19.771Z,35.10
2018-08-10T17:15:48.638Z,35.20
2018-08-10T17:18:17.664Z,35.30
2018-08-10T17:20:46.576Z,35.30
2018-08-10T17:23:15.906Z,35.10
2018-08-10T17:25:46.058Z,35.10
2018-08-10T17:28:14.904Z,35.10
2018-08-10T17:30:43.731Z,35.30
2018-08-10T17:33:12.476Z,35.80
2018-08-10T17:35:43.111Z,35.90
2018-08-10T17:38:11.820Z,36.40
2018-08-10T17:40:40.507Z,36.50
2018-08-10T17:43:09.279Z,36.60
2018-08-10T17:45:38.025Z,37.10
2018-08-10T17:48:06.870Z,37.20
2018-08-10T17:51:11.598Z,37.80
2018-08-10T17:53:40.295Z,38.30
2018-08-10T17:56:09.216Z,39.40
2018-08-10T17:58:38.153Z,39.30
2018-08-10T18:01:06.878Z,39.70
2018-08-10T18:03:36.061Z,39.80
2018-08-10T18:06:04.881Z,39.70
2018-08-10T18:08:33.646Z,41.10
2018-08-10T18:11:02.578Z,40.70
2018-08-10T18:13:31.341Z,40.80
2018-08-10T18:16:00.138Z,41.00
2018-08-10T18:18:28.858Z,40.80
2018-08-10T18:20:57.597Z,40.90
2018-08-10T18:23:26.284Z,41.30
2018-08-10T18:25:55.079Z,41.20
2018-08-10T18:28:23.839Z,41.80
2018-08-10T18:30:52.533Z,41.80
2018-08-10T18:33:21.519Z,42.20
2018-08-10T18:35:50.279Z,42.10
2018-08-10T18:38:18.986Z,42.50
2018-08-10T18:40:47.623Z,43.00
2018-08-10T18:43:16.354Z,43.50
2018-08-10T18:45:45.031Z,43.90
2018-08-10T18:48:13.741Z,43.70
2018-08-10T18:50:42.578Z,43.40
2018-08-10T18:53:11.339Z,43.70
2018-08-10T18:55:40.571Z,43.50
2018-08-10T18:58:09.274Z,43.30
2018-08-10T19:00:38.082Z,43.10
2018-08-10T19:03:06.935Z,43.10
2018-08-10T19:05:35.678Z,44.70
2018-08-10T19:08:04.524Z,43.90
2018-08-10T19:10:33.379Z,44.60
2018-08-10T19:13:03.197Z,43.70
2018-08-10T19:15:31.917Z,43.60
2018-08-10T19:18:00.611Z,43.60
2018-08-10T19:20:29.363Z,44.60
2018-08-10T19:22:58.426Z,44.10
2018-08-10T19:25:27.198Z,44.00
2018-08-10T19:27:56.083Z,43.90
2018-08-10T19:30:25.153Z,44.10
2018-08-10T19:32:54.118Z,48.10
2018-08-10T19:35:22.882Z,49.90
2018-08-10T19:37:52.968Z,49.70
2018-08-10T19:40:21.867Z,50.00
2018-08-10T19:42:50.672Z,50.10
2018-08-10T19:45:19.556Z,50.20
2018-08-10T19:47:48.468Z,50.20
2018-08-10T19:50:21.671Z,50.40
2018-08-10T19:52:50.732Z,50.40
2018-08-10T19:55:20.106Z,49.80
2018-08-10T19:57:49.500Z,51.10
2018-08-10T20:00:19.451Z,51.70
2018-08-10T20:02:50.147Z,51.90
2018-08-10T20:05:18.923Z,52.50
2018-08-10T20:07:47.973Z,52.70
2018-08-10T20:10:16.967Z,52.90
2018-08-10T20:12:46.953Z,52.50
2018-08-10T20:15:17.968Z,52.30
2018-08-10T20:17:46.754Z,51.70
2018-08-10T20:20:17.468Z,52.90
2018-08-10T20:22:47.261Z,52.70
2018-08-10T20:25:17.143Z,52.60
2018-08-10T20:27:46.068Z,53.10
2018-08-10T20:30:17.300Z,51.90
2018-08-10T20:32:46.928Z,51.50
2018-08-10T20:35:18.389Z,53.30
2018-08-10T20:37:47.534Z,55.20
2018-08-10T20:40:18.512Z,55.20
2018-08-10T20:42:48.367Z,56.60
2018-08-10T20:45:18.412Z,57.20
2018-08-10T20:47:47.940Z,58.00
2018-08-10T20:50:22.144Z,58.60
2018-08-10T20:52:51.029Z,58.90
2018-08-10T20:55:20.004Z,59.30
2018-08-10T20:57:49.529Z,60.50
2018-08-10T21:00:18.449Z,61.50
2018-08-10T21:02:47.345Z,62.90
2018-08-10T21:05:16.145Z,62.80
2018-08-10T21:07:45.326Z,61.40
2018-08-10T21:10:16.120Z,61.00
2018-08-10T21:12:45.896Z,60.90
2018-08-10T21:15:15.578Z,60.30
2018-08-10T21:17:45.256Z,60.70
2018-08-10T21:20:17.132Z,60.40
2018-08-10T21:22:46.570Z,60.30
2018-08-10T21:25:19.602Z,60.90
2018-08-10T21:27:48.716Z,61.10
2018-08-10T21:30:19.473Z,61.70
2018-08-10T21:32:48.946Z,62.50
2018-08-10T21:35:18.674Z,63.00
2018-08-10T21:37:48.174Z,63.40
2018-08-10T21:40:17.951Z,63.10
2018-08-10T21:42:47.343Z,63.40
2018-08-10T21:45:16.111Z,63.70
2018-08-10T21:47:44.868Z,63.50
2018-08-10T21:50:14.492Z,63.70
2018-08-10T21:52:44.064Z,64.20
2018-08-10T21:55:13.017Z,64.50
2018-08-10T21:57:41.878Z,65.10
2018-08-10T22:00:24.333Z,65.40
2018-08-10T22:02:53.125Z,65.60
2018-08-10T22:05:21.840Z,66.00
2018-08-10T22:07:50.631Z,66.70
2018-08-10T22:10:20.446Z,67.10
2018-08-10T22:12:49.852Z,67.30
2018-08-10T22:15:24.370Z,67.50
2018-08-10T22:17:59.554Z,67.70
2018-08-10T22:20:28.344Z,67.40
2018-08-10T22:22:57.131Z,67.00
2018-08-10T22:25:26.804Z,66.40
2018-08-10T22:27:55.671Z,66.50
2018-08-10T22:30:24.431Z,65.60
2018-08-10T22:32:53.171Z,66.20
2018-08-10T22:35:21.854Z,66.00
2018-08-10T22:37:50.731Z,66.30
2018-08-10T22:40:19.620Z,67.30
2018-08-10T22:42:48.418Z,68.50
2018-08-10T22:45:17.264Z,68.30
2018-08-10T22:47:45.915Z,68.30
2018-08-10T22:50:14.724Z,69.30
2018-08-10T22:52:44.001Z,70.10
2018-08-10T22:55:12.745Z,70.90
2018-08-10T22:57:41.448Z,70.70
2018-08-10T23:00:10.200Z,70.70
2018-08-10T23:02:38.921Z,71.40
2018-08-10T23:05:07.992Z,70.40
2018-08-10T23:07:36.923Z,70.40
2018-08-10T23:10:08.251Z,70.60
2018-08-10T23:12:37.019Z,70.80
2018-08-10T23:15:06.880Z,68.60
2018-08-10T23:17:35.788Z,65.80
2018-08-10T23:20:06.936Z,64.30
2018-08-10T23:22:35.675Z,63.20
2018-08-10T23:25:06.631Z,62.20
2018-08-10T23:27:35.355Z,61.30
2018-08-10T23:30:06.236Z,61.10
2018-08-10T23:32:35.025Z,64.90
2018-08-10T23:35:03.998Z,67.60
2018-08-10T23:37:32.810Z,69.30
2018-08-10T23:40:01.451Z,69.80
2018-08-10T23:42:30.143Z,71.30
2018-08-10T23:44:59.012Z,72.20
2018-08-10T23:47:27.665Z,73.40
2018-08-10T23:49:56.358Z,74.60
2018-08-10T23:52:25.063Z,75.50
2018-08-10T23:54:53.707Z,76.20
2018-08-10T23:57:22.419Z,76.40
2018-08-10T23:59:51.105Z,76.10
